createdAt,value
2023-02-19T00:00:02.454Z,1008.45
2023-02-19T00:01:02.449Z,1008.40
2023-02-19T00:02:02.458Z,1008.34
2023-02-19T00:03:02.387Z,1008.30
2023-02-19T00:04:03.203Z,1008.21
2023-02-19T00:05:02.564Z,1008.19
2023-02-19T00:06:02.387Z,1008.13
2023-02-19T00:07:02.360Z,1008.09
2023-02-19T00:08:02.358Z,1008.16
2023-02-19T00:09:02.320Z,1008.27
2023-02-19T00:10:02.319Z,1008.36
2023-02-19T00:11:02.333Z,1008.37
2023-02-19T00:12:02.276Z,1008.32
2023-02-19T00:13:02.394Z,1008.35
2023-02-19T00:14:02.281Z,1008.30
2023-02-19T00:15:02.296Z,1008.25
2023-02-19T00:16:02.274Z,1008.26
2023-02-19T00:17:02.226Z,1008.18
2023-02-19T00:18:02.197Z,1008.20
2023-02-19T00:19:02.180Z,1008.21
2023-02-19T00:20:02.180Z,1008.19
2023-02-19T00:21:02.196Z,1008.24
2023-02-19T00:22:02.137Z,1008.28
2023-02-19T00:23:02.168Z,1008.29
2023-02-19T00:24:02.116Z,1008.29
2023-02-19T00:25:02.213Z,1008.27
2023-02-19T00:26:17.189Z,1008.26
2023-02-19T00:27:03.118Z,1008.27
2023-02-19T00:28:02.119Z,1008.26
2023-02-19T00:29:02.377Z,1008.23
2023-02-19T00:30:02.195Z,1008.20
2023-02-19T00:31:02.411Z,1008.22
2023-02-19T00:32:02.208Z,1008.15
2023-02-19T00:33:02.122Z,1008.13
2023-02-19T00:34:02.996Z,1008.11
2023-02-19T00:35:02.014Z,1008.11
2023-02-19T00:36:02.006Z,1008.08
2023-02-19T00:37:01.997Z,1007.99
2023-02-19T00:38:01.935Z,1007.99
2023-02-19T00:39:02.047Z,1007.91
2023-02-19T00:40:01.903Z,1007.91
2023-02-19T00:41:01.927Z,1007.90
2023-02-19T00:42:01.886Z,1007.89
2023-02-19T00:43:01.899Z,1007.88
2023-02-19T00:44:02.937Z,1007.88
2023-02-19T00:45:01.879Z,1007.92
2023-02-19T00:46:01.942Z,1007.89
2023-02-19T00:47:01.870Z,1007.91
2023-02-19T00:48:01.804Z,1007.92
2023-02-19T00:49:01.833Z,1007.94
2023-02-19T00:50:01.962Z,1007.98
2023-02-19T00:51:01.828Z,1007.99
2023-02-19T00:52:01.868Z,1007.96
2023-02-19T00:53:01.746Z,1007.95
2023-02-19T00:54:01.739Z,1007.88
2023-02-19T00:55:02.800Z,1007.88
2023-02-19T00:56:02.817Z,1007.84
2023-02-19T00:57:01.756Z,1007.83
2023-02-19T00:58:02.609Z,1007.79
2023-02-19T00:59:01.704Z,1007.81
2023-02-19T01:00:01.725Z,1007.83
2023-02-19T01:01:01.759Z,1007.81
2023-02-19T01:02:01.642Z,1007.78
2023-02-19T01:03:01.639Z,1007.79
2023-02-19T01:04:01.754Z,1007.77
2023-02-19T01:05:01.651Z,1007.75
2023-02-19T01:06:01.991Z,1007.75
2023-02-19T01:07:01.643Z,1007.75
2023-02-19T01:08:01.590Z,1007.78
2023-02-19T01:09:01.669Z,1007.79
2023-02-19T01:10:01.833Z,1007.77
2023-02-19T01:11:01.591Z,1007.71
2023-02-19T01:12:01.521Z,1007.69
2023-02-19T01:13:01.502Z,1007.68
2023-02-19T01:14:01.561Z,1007.73
2023-02-19T01:15:01.480Z,1007.70
2023-02-19T01:16:02.455Z,1007.63
2023-02-19T01:17:01.531Z,1007.64
2023-02-19T01:18:01.441Z,1007.55
2023-02-19T01:19:01.457Z,1007.51
2023-02-19T01:20:01.566Z,1007.47
2023-02-19T01:21:01.366Z,1007.38
2023-02-19T01:22:01.413Z,1007.39
2023-02-19T01:23:01.399Z,1007.35
2023-02-19T01:24:02.322Z,1007.34
2023-02-19T01:25:01.365Z,1007.38
2023-02-19T01:26:01.342Z,1007.34
2023-02-19T01:27:01.329Z,1007.41
2023-02-19T01:28:01.337Z,1007.39
2023-02-19T01:29:02.190Z,1007.41
2023-02-19T01:30:01.295Z,1007.38
2023-02-19T01:31:01.908Z,1007.44
2023-02-19T01:32:01.458Z,1007.36
2023-02-19T01:33:01.329Z,1007.36
2023-02-19T01:34:01.228Z,1007.37
2023-02-19T01:35:01.259Z,1007.36
2023-02-19T01:36:01.226Z,1007.38
2023-02-19T01:37:02.709Z,1007.38
2023-02-19T01:38:01.349Z,1007.42
2023-02-19T01:39:01.195Z,1007.39
2023-02-19T01:40:01.148Z,1007.37
2023-02-19T01:41:01.159Z,1007.40
2023-02-19T01:42:01.233Z,1007.37
2023-02-19T01:43:01.096Z,1007.41
2023-02-19T01:44:01.237Z,1007.41
2023-02-19T01:45:01.374Z,1007.46
2023-02-19T01:46:01.298Z,1007.45
2023-02-19T01:47:01.082Z,1007.45
2023-02-19T01:48:01.072Z,1007.46
2023-02-19T01:49:01.122Z,1007.45
2023-02-19T01:50:01.008Z,1007.45
2023-02-19T01:51:01.034Z,1007.44
2023-02-19T01:52:01.026Z,1007.48
2023-02-19T01:53:01.938Z,1007.52
2023-02-19T01:54:00.990Z,1007.55
2023-02-19T01:55:00.998Z,1007.53
2023-02-19T01:56:00.957Z,1007.54
2023-02-19T01:57:00.928Z,1007.52
2023-02-19T01:58:01.144Z,1007.50
2023-02-19T01:59:00.932Z,1007.51
2023-02-19T02:00:00.937Z,1007.47
2023-02-19T02:01:00.980Z,1007.46
2023-02-19T02:02:00.923Z,1007.44
2023-02-19T02:03:00.926Z,1007.39
2023-02-19T02:04:00.874Z,1007.32
2023-02-19T02:05:00.824Z,1007.30
2023-02-19T02:06:00.899Z,1007.28
2023-02-19T02:07:00.836Z,1007.30
2023-02-19T02:08:00.868Z,1007.35
2023-02-19T02:09:00.760Z,1007.32
2023-02-19T02:10:00.750Z,1007.39
2023-02-19T02:11:00.838Z,1007.40
2023-02-19T02:12:00.814Z,1007.39
2023-02-19T02:13:00.784Z,1007.39
2023-02-19T02:14:00.722Z,1007.40
2023-02-19T02:15:01.150Z,1007.42
2023-02-19T02:16:01.791Z,1007.37
2023-02-19T02:17:01.495Z,1007.31
2023-02-19T02:18:00.675Z,1007.25
2023-02-19T02:19:00.723Z,1007.19
2023-02-19T02:20:00.650Z,1007.20
2023-02-19T02:21:00.714Z,1007.22
2023-02-19T02:22:00.620Z,1007.29
2023-02-19T02:23:00.606Z,1007.37
2023-02-19T02:24:00.864Z,1007.26
2023-02-19T02:25:00.604Z,1007.23
2023-02-19T02:26:00.586Z,1007.28
2023-02-19T02:27:01.755Z,1007.40
2023-02-19T02:28:01.665Z,1007.47
2023-02-19T02:29:00.655Z,1007.51
2023-02-19T02:30:00.623Z,1007.37
2023-02-19T02:31:00.557Z,1007.15
2023-02-19T02:32:00.565Z,1007.08
2023-02-19T02:33:00.668Z,1007.11
2023-02-19T02:34:00.541Z,1007.17
2023-02-19T02:35:00.429Z,1007.22
2023-02-19T02:36:00.668Z,1007.20
2023-02-19T02:37:00.459Z,1007.21
2023-02-19T02:38:00.439Z,1007.20
2023-02-19T02:39:00.434Z,1007.20
2023-02-19T02:40:00.620Z,1007.14
2023-02-19T02:41:00.389Z,1007.26
2023-02-19T02:42:00.377Z,1007.30
2023-02-19T02:43:00.363Z,1007.37
2023-02-19T02:44:00.356Z,1007.36
2023-02-19T02:45:00.676Z,1007.34
2023-02-19T02:46:00.338Z,1007.39
2023-02-19T02:47:00.301Z,1007.33
2023-02-19T02:48:00.267Z,1007.33
2023-02-19T02:49:00.317Z,1007.30
2023-02-19T02:50:00.268Z,1007.22
2023-02-19T02:51:00.325Z,1007.25
2023-02-19T02:52:00.261Z,1007.25
2023-02-19T02:53:00.280Z,1007.21
2023-02-19T02:54:00.190Z,1007.13
2023-02-19T02:55:02.562Z,1007.19
2023-02-19T02:56:00.218Z,1007.15
2023-02-19T02:57:00.930Z,1007.15
2023-02-19T02:58:01.593Z,1007.13
2023-02-19T02:59:01.124Z,1007.18
2023-02-19T03:00:00.238Z,1007.21
2023-02-19T03:01:00.178Z,1007.20
2023-02-19T03:02:00.184Z,1007.22
2023-02-19T03:03:00.073Z,1007.17
2023-02-19T03:04:00.650Z,1007.18
2023-02-19T03:05:00.095Z,1007.29
2023-02-19T03:06:00.173Z,1007.36
2023-02-19T03:07:00.213Z,1007.37
2023-02-19T03:08:00.069Z,1007.53
2023-02-19T03:09:00.032Z,1007.55
2023-02-19T03:10:00.156Z,1007.59
2023-02-19T03:11:01.103Z,1007.66
2023-02-19T03:11:59.984Z,1007.68
2023-02-19T03:12:59.987Z,1007.75
2023-02-19T03:13:59.955Z,1007.72
2023-02-19T03:15:00.147Z,1007.74
2023-02-19T03:15:59.901Z,1007.79
2023-02-19T03:17:00.897Z,1007.81
2023-02-19T03:17:59.875Z,1007.82
2023-02-19T03:19:00.584Z,1007.79
2023-02-19T03:19:59.855Z,1007.84
2023-02-19T03:20:59.943Z,1007.76
2023-02-19T03:21:59.931Z,1007.77
2023-02-19T03:22:59.830Z,1007.77
2023-02-19T03:24:00.610Z,1007.79
2023-02-19T03:24:59.866Z,1007.85
2023-02-19T03:25:59.842Z,1007.78
2023-02-19T03:27:00.723Z,1007.84
2023-02-19T03:28:01.013Z,1007.75
2023-02-19T03:28:59.873Z,1007.81
2023-02-19T03:30:00.822Z,1007.74
2023-02-19T03:30:59.791Z,1007.73
2023-02-19T03:32:00.762Z,1007.70
2023-02-19T03:32:59.723Z,1007.79
2023-02-19T03:33:59.703Z,1007.83
2023-02-19T03:34:59.724Z,1007.90
2023-02-19T03:35:59.721Z,1007.93
2023-02-19T03:36:59.642Z,1007.92
2023-02-19T03:37:59.641Z,1007.89
2023-02-19T03:38:59.691Z,1007.85
2023-02-19T03:40:00.389Z,1007.87
2023-02-19T03:40:59.609Z,1007.87
2023-02-19T03:42:00.687Z,1007.85
2023-02-19T03:42:59.696Z,1007.83
2023-02-19T03:44:00.516Z,1007.84
2023-02-19T03:45:00.403Z,1007.87
2023-02-19T03:45:59.603Z,1007.90
2023-02-19T03:46:59.625Z,1007.86
2023-02-19T03:47:59.527Z,1007.89
2023-02-19T03:48:59.479Z,1007.94
2023-02-19T03:49:59.519Z,1007.93
2023-02-19T03:50:59.494Z,1007.91
2023-02-19T03:52:00.153Z,1007.94
2023-02-19T03:53:00.655Z,1008.00
2023-02-19T03:53:59.436Z,1008.03
2023-02-19T03:54:59.925Z,1008.03
2023-02-19T03:56:00.379Z,1008.02
2023-02-19T03:56:59.424Z,1008.06
2023-02-19T03:57:59.392Z,1008.13
2023-02-19T03:58:59.431Z,1008.10
2023-02-19T03:59:59.362Z,1008.09
2023-02-19T04:00:59.353Z,1008.07
2023-02-19T04:01:59.332Z,1008.08
2023-02-19T04:02:59.373Z,1008.08
2023-02-19T04:03:59.341Z,1008.09
2023-02-19T04:04:59.761Z,1008.01
2023-02-19T04:05:59.273Z,1008.06
2023-02-19T04:06:59.873Z,1008.18
2023-02-19T04:07:59.290Z,1008.20
2023-02-19T04:08:59.283Z,1008.20
2023-02-19T04:10:00.057Z,1008.21
2023-02-19T04:10:59.316Z,1008.21
2023-02-19T04:11:59.245Z,1008.23
2023-02-19T04:12:59.343Z,1008.28
2023-02-19T04:13:59.194Z,1008.30
2023-02-19T04:14:59.247Z,1008.37
2023-02-19T04:15:59.161Z,1008.34
2023-02-19T04:16:59.239Z,1008.35
2023-02-19T04:18:00.274Z,1008.39
2023-02-19T04:18:59.117Z,1008.41
2023-02-19T04:19:59.240Z,1008.47
2023-02-19T04:20:59.134Z,1008.47
2023-02-19T04:21:59.117Z,1008.53
2023-02-19T04:22:59.098Z,1008.51
2023-02-19T04:23:59.069Z,1008.49
2023-02-19T04:24:59.056Z,1008.57
2023-02-19T04:25:59.031Z,1008.53
2023-02-19T04:26:59.029Z,1008.63
2023-02-19T04:27:59.149Z,1008.67
2023-02-19T04:28:59.216Z,1008.68
2023-02-19T04:29:59.067Z,1008.69
2023-02-19T04:30:59.076Z,1008.74
2023-02-19T04:31:59.003Z,1008.75
2023-02-19T04:32:59.896Z,1008.76
2023-02-19T04:33:58.926Z,1008.80
2023-02-19T04:34:59.342Z,1008.82
2023-02-19T04:35:58.943Z,1008.76
2023-02-19T04:36:58.888Z,1008.78
2023-02-19T04:37:58.895Z,1008.83
2023-02-19T04:38:59.659Z,1008.80
2023-02-19T04:39:59.741Z,1008.82
2023-02-19T04:40:58.864Z,1008.84
2023-02-19T04:41:58.957Z,1008.88
2023-02-19T04:42:58.822Z,1008.84
2023-02-19T04:43:58.921Z,1008.84
2023-02-19T04:44:58.801Z,1008.86
2023-02-19T04:45:58.842Z,1008.89
2023-02-19T04:46:58.765Z,1008.94
2023-02-19T04:47:58.748Z,1008.96
2023-02-19T04:48:58.858Z,1008.97
2023-02-19T04:49:58.717Z,1009.02
2023-02-19T04:50:58.712Z,1009.03
2023-02-19T04:51:58.707Z,1009.07
2023-02-19T04:52:58.708Z,1009.12
2023-02-19T04:53:58.663Z,1009.13
2023-02-19T04:54:58.657Z,1009.14
2023-02-19T04:55:58.649Z,1009.16
2023-02-19T04:56:58.658Z,1009.28
2023-02-19T04:57:58.635Z,1009.25
2023-02-19T04:58:58.655Z,1009.27
2023-02-19T04:59:58.608Z,1009.30
2023-02-19T05:00:58.585Z,1009.33
2023-02-19T05:01:58.597Z,1009.38
2023-02-19T05:02:58.812Z,1009.43
2023-02-19T05:03:59.515Z,1009.39
2023-02-19T05:04:58.624Z,1009.37
2023-02-19T05:05:59.064Z,1009.37
2023-02-19T05:06:58.532Z,1009.44
2023-02-19T05:07:58.672Z,1009.46
2023-02-19T05:08:58.557Z,1009.48
2023-02-19T05:09:59.407Z,1009.47
2023-02-19T05:10:58.515Z,1009.48
2023-02-19T05:11:58.579Z,1009.47
2023-02-19T05:12:58.479Z,1009.48
2023-02-19T05:13:58.683Z,1009.51
2023-02-19T05:14:58.930Z,1009.51
2023-02-19T05:15:59.417Z,1009.53
2023-02-19T05:16:58.562Z,1009.59
2023-02-19T05:17:58.377Z,1009.54
2023-02-19T05:18:58.363Z,1009.54
2023-02-19T05:19:58.330Z,1009.59
2023-02-19T05:20:58.357Z,1009.62
2023-02-19T05:21:59.297Z,1009.63
2023-02-19T05:22:58.317Z,1009.63
2023-02-19T05:23:59.091Z,1009.69
2023-02-19T05:24:58.301Z,1009.70
2023-02-19T05:25:59.410Z,1009.77
2023-02-19T05:26:59.079Z,1009.82
2023-02-19T05:27:58.331Z,1009.85
2023-02-19T05:28:58.288Z,1009.83
2023-02-19T05:29:58.252Z,1009.92
2023-02-19T05:30:58.441Z,1009.95
2023-02-19T05:31:59.355Z,1009.96
2023-02-19T05:32:58.262Z,1009.97
2023-02-19T05:33:58.181Z,1010.01
2023-02-19T05:34:58.807Z,1010.01
2023-02-19T05:35:58.151Z,1010.06
2023-02-19T05:36:58.129Z,1010.04
2023-02-19T05:37:58.110Z,1010.10
2023-02-19T05:38:58.142Z,1010.08
2023-02-19T05:39:58.119Z,1010.08
2023-02-19T05:40:58.101Z,1010.08
2023-02-19T05:41:58.060Z,1010.09
2023-02-19T05:42:58.840Z,1010.11
2023-02-19T05:43:58.054Z,1010.17
2023-02-19T05:44:58.149Z,1010.16
2023-02-19T05:45:58.009Z,1010.19
2023-02-19T05:46:58.012Z,1010.24
2023-02-19T05:47:58.115Z,1010.26
2023-02-19T05:48:58.032Z,1010.27
2023-02-19T05:49:57.991Z,1010.29
2023-02-19T05:50:57.984Z,1010.30
2023-02-19T05:51:58.964Z,1010.29
2023-02-19T05:52:57.902Z,1010.34
2023-02-19T05:53:57.918Z,1010.30
2023-02-19T05:54:57.907Z,1010.30
2023-02-19T05:55:57.865Z,1010.37
2023-02-19T05:56:57.925Z,1010.41
2023-02-19T05:57:58.892Z,1010.44
2023-02-19T05:58:57.861Z,1010.45
2023-02-19T05:59:58.270Z,1010.48
2023-02-19T06:00:57.842Z,1010.47
2023-02-19T06:01:58.129Z,1010.44
2023-02-19T06:02:57.947Z,1010.49
2023-02-19T06:03:58.130Z,1010.52
2023-02-19T06:04:57.776Z,1010.49
2023-02-19T06:05:57.774Z,1010.52
2023-02-19T06:06:57.750Z,1010.54
2023-02-19T06:07:57.716Z,1010.53
2023-02-19T06:08:57.691Z,1010.56
2023-02-19T06:09:57.744Z,1010.58
2023-02-19T06:10:57.685Z,1010.56
2023-02-19T06:11:57.694Z,1010.61
2023-02-19T06:12:58.480Z,1010.64
2023-02-19T06:13:57.984Z,1010.65
2023-02-19T06:14:57.704Z,1010.72
2023-02-19T06:15:57.708Z,1010.70
2023-02-19T06:16:57.657Z,1010.73
2023-02-19T06:17:57.604Z,1010.75
2023-02-19T06:18:57.607Z,1010.72
2023-02-19T06:19:57.575Z,1010.75
2023-02-19T06:20:57.594Z,1010.74
2023-02-19T06:21:57.603Z,1010.81
2023-02-19T06:22:57.538Z,1010.85
2023-02-19T06:23:57.529Z,1010.87
2023-02-19T06:24:57.539Z,1010.90
2023-02-19T06:25:57.556Z,1010.93
2023-02-19T06:26:57.571Z,1010.93
2023-02-19T06:27:57.997Z,1010.97
2023-02-19T06:28:57.470Z,1011.00
2023-02-19T06:29:57.471Z,1011.04
2023-02-19T06:30:57.929Z,1011.04
2023-02-19T06:31:57.595Z,1011.12
2023-02-19T06:32:57.392Z,1011.13
2023-02-19T06:33:57.410Z,1011.13
2023-02-19T06:34:57.375Z,1011.17
2023-02-19T06:35:57.428Z,1011.16
2023-02-19T06:36:57.977Z,1011.16
2023-02-19T06:37:57.398Z,1011.17
2023-02-19T06:38:57.449Z,1011.15
2023-02-19T06:39:57.329Z,1011.17
2023-02-19T06:40:57.372Z,1011.21
2023-02-19T06:41:57.496Z,1011.24
2023-02-19T06:42:57.293Z,1011.27
2023-02-19T06:43:58.734Z,1011.22
2023-02-19T06:44:57.331Z,1011.29
2023-02-19T06:45:57.274Z,1011.28
2023-02-19T06:46:57.561Z,1011.28
2023-02-19T06:47:57.256Z,1011.26
2023-02-19T06:48:57.194Z,1011.30
2023-02-19T06:49:57.186Z,1011.35
2023-02-19T06:50:57.181Z,1011.32
2023-02-19T06:51:57.167Z,1011.33
2023-02-19T06:52:57.179Z,1011.38
2023-02-19T06:53:57.159Z,1011.42
2023-02-19T06:54:58.628Z,1011.45
2023-02-19T06:55:57.158Z,1011.49
2023-02-19T06:56:57.141Z,1011.46
2023-02-19T06:57:57.686Z,1011.50
2023-02-19T06:58:57.080Z,1011.52
2023-02-19T06:59:57.063Z,1011.58
2023-02-19T07:00:57.115Z,1011.56
2023-02-19T07:01:57.028Z,1011.56
2023-02-19T07:02:57.125Z,1011.59
2023-02-19T07:03:57.064Z,1011.55
2023-02-19T07:04:57.015Z,1011.59
2023-02-19T07:05:56.999Z,1011.59
2023-02-19T07:06:57.076Z,1011.62
2023-02-19T07:07:57.815Z,1011.71
2023-02-19T07:08:57.042Z,1011.71
2023-02-19T07:09:56.933Z,1011.76
2023-02-19T07:10:56.915Z,1011.83
2023-02-19T07:11:56.906Z,1011.88
2023-02-19T07:12:56.899Z,1011.90
2023-02-19T07:13:56.922Z,1011.91
2023-02-19T07:14:56.871Z,1011.95
2023-02-19T07:15:56.866Z,1011.99
2023-02-19T07:16:56.885Z,1012.03
2023-02-19T07:17:56.867Z,1012.05
2023-02-19T07:18:57.155Z,1012.04
2023-02-19T07:19:56.814Z,1012.05
2023-02-19T07:20:56.804Z,1012.10
2023-02-19T07:21:56.810Z,1012.17
2023-02-19T07:22:56.777Z,1012.19
2023-02-19T07:23:56.756Z,1012.21
2023-02-19T07:24:56.757Z,1012.28
2023-02-19T07:25:56.717Z,1012.26
2023-02-19T07:26:56.706Z,1012.30
2023-02-19T07:27:56.681Z,1012.28
2023-02-19T07:28:56.915Z,1012.35
2023-02-19T07:29:56.683Z,1012.38
2023-02-19T07:30:56.779Z,1012.42
2023-02-19T07:31:56.903Z,1012.42
2023-02-19T07:32:56.679Z,1012.49
2023-02-19T07:33:56.622Z,1012.45
2023-02-19T07:34:56.605Z,1012.47
2023-02-19T07:35:56.627Z,1012.48
2023-02-19T07:36:56.617Z,1012.51
2023-02-19T07:37:56.601Z,1012.47
2023-02-19T07:38:56.592Z,1012.57
2023-02-19T07:39:56.547Z,1012.62
2023-02-19T07:40:56.690Z,1012.65
2023-02-19T07:41:56.788Z,1012.66
2023-02-19T07:42:56.512Z,1012.69
2023-02-19T07:43:56.517Z,1012.68
2023-02-19T07:44:57.921Z,1012.69
2023-02-19T07:45:56.542Z,1012.69
2023-02-19T07:46:56.473Z,1012.72
2023-02-19T07:47:56.450Z,1012.77
2023-02-19T07:48:56.445Z,1012.81
2023-02-19T07:49:56.431Z,1012.82
2023-02-19T07:50:56.407Z,1012.86
2023-02-19T07:51:56.402Z,1012.85
2023-02-19T07:52:56.378Z,1012.91
2023-02-19T07:53:56.378Z,1012.97
2023-02-19T07:54:56.424Z,1013.02
2023-02-19T07:55:56.354Z,1013.04
2023-02-19T07:56:57.311Z,1013.07
2023-02-19T07:57:56.333Z,1013.07
2023-02-19T07:58:56.307Z,1013.06
2023-02-19T07:59:56.312Z,1013.09
2023-02-19T08:00:56.328Z,1013.10
2023-02-19T08:01:56.314Z,1013.16
2023-02-19T08:02:56.327Z,1013.11
2023-02-19T08:03:56.267Z,1013.11
2023-02-19T08:04:56.366Z,1013.10
2023-02-19T08:05:56.213Z,1013.09
2023-02-19T08:06:56.249Z,1013.14
2023-02-19T08:07:56.237Z,1013.14
2023-02-19T08:08:57.110Z,1013.12
2023-02-19T08:09:56.207Z,1013.14
2023-02-19T08:10:56.174Z,1013.21
2023-02-19T08:11:56.225Z,1013.18
2023-02-19T08:12:56.242Z,1013.23
2023-02-19T08:13:56.115Z,1013.29
2023-02-19T08:14:56.116Z,1013.31
2023-02-19T08:16:01.704Z,1013.31
2023-02-19T08:16:57.153Z,1013.35
2023-02-19T08:17:56.068Z,1013.35
2023-02-19T08:18:56.065Z,1013.36
2023-02-19T08:19:57.049Z,1013.37
2023-02-19T08:20:56.047Z,1013.42
2023-02-19T08:21:56.048Z,1013.48
2023-02-19T08:22:55.995Z,1013.53
2023-02-19T08:23:56.587Z,1013.54
2023-02-19T08:24:56.008Z,1013.59
2023-02-19T08:25:56.020Z,1013.61
2023-02-19T08:26:55.985Z,1013.58
2023-02-19T08:27:55.937Z,1013.60
2023-02-19T08:28:55.937Z,1013.67
2023-02-19T08:29:55.915Z,1013.70
2023-02-19T08:30:55.930Z,1013.73
2023-02-19T08:31:55.937Z,1013.74
2023-02-19T08:32:55.869Z,1013.75
2023-02-19T08:33:56.557Z,1013.83
2023-02-19T08:34:55.845Z,1013.88
2023-02-19T08:35:55.884Z,1013.88
2023-02-19T08:36:55.955Z,1013.79
2023-02-19T08:37:55.816Z,1013.84
2023-02-19T08:38:55.802Z,1013.83
2023-02-19T08:39:55.908Z,1013.85
2023-02-19T08:40:55.786Z,1013.90
2023-02-19T08:41:55.759Z,1013.94
2023-02-19T08:42:55.740Z,1013.91
2023-02-19T08:43:55.790Z,1013.92
2023-02-19T08:44:55.788Z,1013.98
2023-02-19T08:45:55.774Z,1014.01
2023-02-19T08:46:55.709Z,1014.03
2023-02-19T08:47:55.725Z,1014.03
2023-02-19T08:48:55.689Z,1014.07
2023-02-19T08:49:55.661Z,1014.05
2023-02-19T08:50:55.668Z,1014.03
2023-02-19T08:51:55.712Z,1014.09
2023-02-19T08:52:55.739Z,1014.09
2023-02-19T08:53:55.615Z,1014.09
2023-02-19T08:54:55.614Z,1014.11
2023-02-19T08:55:55.615Z,1014.10
2023-02-19T08:56:55.639Z,1014.12
2023-02-19T08:57:55.660Z,1014.14
2023-02-19T08:58:55.545Z,1014.21
2023-02-19T08:59:55.566Z,1014.20
2023-02-19T09:00:55.524Z,1014.25
2023-02-19T09:01:55.517Z,1014.30
2023-02-19T09:02:55.487Z,1014.34
2023-02-19T09:03:55.611Z,1014.27
2023-02-19T09:04:55.454Z,1014.31
2023-02-19T09:05:55.444Z,1014.28
2023-02-19T09:06:56.637Z,1014.25
2023-02-19T09:07:55.458Z,1014.29
2023-02-19T09:08:55.466Z,1014.24
2023-02-19T09:09:55.429Z,1014.29
2023-02-19T09:10:55.648Z,1014.27
2023-02-19T09:11:55.469Z,1014.27
2023-02-19T09:12:55.971Z,1014.32
2023-02-19T09:13:55.425Z,1014.33
2023-02-19T09:14:55.344Z,1014.28
2023-02-19T09:15:55.341Z,1014.25
2023-02-19T09:16:55.397Z,1014.25
2023-02-19T09:17:55.308Z,1014.24
2023-02-19T09:18:55.306Z,1014.30
2023-02-19T09:19:55.298Z,1014.28
2023-02-19T09:20:55.259Z,1014.31
2023-02-19T09:21:55.249Z,1014.26
2023-02-19T09:22:55.272Z,1014.29
2023-02-19T09:23:55.253Z,1014.29
2023-02-19T09:24:55.261Z,1014.32
2023-02-19T09:25:55.208Z,1014.38
2023-02-19T09:26:55.281Z,1014.41
2023-02-19T09:27:56.181Z,1014.34
2023-02-19T09:28:55.264Z,1014.35
2023-02-19T09:29:55.184Z,1014.38
2023-02-19T09:30:55.346Z,1014.40
2023-02-19T09:31:55.243Z,1014.42
2023-02-19T09:32:55.144Z,1014.49
2023-02-19T09:33:55.134Z,1014.58
2023-02-19T09:34:55.108Z,1014.50
2023-02-19T09:35:55.115Z,1014.50
2023-02-19T09:36:55.063Z,1014.55
2023-02-19T09:37:55.049Z,1014.55
2023-02-19T09:38:55.087Z,1014.60
2023-02-19T09:39:55.038Z,1014.63
2023-02-19T09:40:55.107Z,1014.67
2023-02-19T09:41:55.031Z,1014.74
2023-02-19T09:42:54.991Z,1014.73
2023-02-19T09:43:55.039Z,1014.78
2023-02-19T09:44:55.006Z,1014.83
2023-02-19T09:45:55.021Z,1014.85
2023-02-19T09:46:54.947Z,1014.89
2023-02-19T09:47:54.929Z,1014.86
2023-02-19T09:48:55.008Z,1014.81
2023-02-19T09:49:54.934Z,1014.85
2023-02-19T09:50:54.896Z,1014.84
2023-02-19T09:51:54.877Z,1014.79
2023-02-19T09:52:54.980Z,1014.84
2023-02-19T09:53:54.888Z,1014.87
2023-02-19T09:54:57.201Z,1014.84
2023-02-19T09:55:54.886Z,1014.83
2023-02-19T09:56:54.866Z,1014.80
2023-02-19T09:57:54.790Z,1014.78
2023-02-19T09:58:54.810Z,1014.82
2023-02-19T09:59:54.802Z,1014.79
2023-02-19T10:00:54.784Z,1014.82
2023-02-19T10:01:54.842Z,1014.77
2023-02-19T10:02:54.718Z,1014.89
2023-02-19T10:03:54.741Z,1014.84
2023-02-19T10:04:54.808Z,1014.86
2023-02-19T10:05:54.719Z,1014.82
2023-02-19T10:06:54.695Z,1014.89
2023-02-19T10:07:54.698Z,1014.84
2023-02-19T10:08:54.677Z,1014.89
2023-02-19T10:09:54.787Z,1014.92
2023-02-19T10:10:54.615Z,1014.95
2023-02-19T10:11:54.606Z,1015.04
2023-02-19T10:12:54.656Z,1015.10
2023-02-19T10:13:54.758Z,1015.23
2023-02-19T10:14:54.967Z,1015.18
2023-02-19T10:15:54.649Z,1015.11
2023-02-19T10:16:54.545Z,1015.16
2023-02-19T10:17:54.616Z,1015.18
2023-02-19T10:18:54.538Z,1015.19
2023-02-19T10:19:54.508Z,1015.22
2023-02-19T10:20:54.498Z,1015.18
2023-02-19T10:21:54.498Z,1015.17
2023-02-19T10:22:54.498Z,1015.17
2023-02-19T10:23:54.451Z,1015.23
2023-02-19T10:24:54.498Z,1015.35
2023-02-19T10:25:55.701Z,1015.49
2023-02-19T10:26:54.468Z,1015.47
2023-02-19T10:27:54.429Z,1015.44
2023-02-19T10:28:54.414Z,1015.42
2023-02-19T10:29:54.380Z,1015.41
2023-02-19T10:30:54.443Z,1015.41
2023-02-19T10:31:54.592Z,1015.48
2023-02-19T10:32:54.330Z,1015.55
2023-02-19T10:33:54.349Z,1015.63
2023-02-19T10:34:54.350Z,1015.64
2023-02-19T10:35:54.332Z,1015.64
2023-02-19T10:36:54.308Z,1015.67
2023-02-19T10:37:54.274Z,1015.56
2023-02-19T10:38:54.273Z,1015.71
2023-02-19T10:39:54.394Z,1015.67
2023-02-19T10:40:54.335Z,1015.71
2023-02-19T10:41:54.327Z,1015.77
2023-02-19T10:42:54.413Z,1015.77
2023-02-19T10:43:54.238Z,1015.82
2023-02-19T10:44:54.239Z,1015.85
2023-02-19T10:45:54.213Z,1015.87
2023-02-19T10:46:55.274Z,1015.81
2023-02-19T10:47:54.169Z,1015.83
2023-02-19T10:48:54.161Z,1015.80
2023-02-19T10:49:54.154Z,1015.84
2023-02-19T10:50:54.114Z,1015.85
2023-02-19T10:51:54.134Z,1015.90
2023-02-19T10:52:54.168Z,1015.95
2023-02-19T10:53:54.130Z,1015.95
2023-02-19T10:54:54.074Z,1015.91
2023-02-19T10:55:54.162Z,1015.89
2023-02-19T10:56:55.298Z,1015.90
2023-02-19T10:57:54.097Z,1015.83
2023-02-19T10:58:54.041Z,1015.84
2023-02-19T10:59:54.250Z,1015.93
2023-02-19T11:00:54.063Z,1015.76
2023-02-19T11:01:54.847Z,1015.82
2023-02-19T11:02:53.989Z,1015.74
2023-02-19T11:03:54.039Z,1015.76
2023-02-19T11:04:53.973Z,1015.82
2023-02-19T11:05:55.556Z,1015.79
2023-02-19T11:06:54.279Z,1015.81
2023-02-19T11:07:54.542Z,1015.75
2023-02-19T11:08:55.183Z,1015.76
2023-02-19T11:09:55.062Z,1015.70
2023-02-19T11:10:54.960Z,1015.71
2023-02-19T11:11:53.875Z,1015.74
2023-02-19T11:12:53.846Z,1015.78
2023-02-19T11:13:53.837Z,1015.81
2023-02-19T11:14:53.808Z,1015.82
2023-02-19T11:15:53.853Z,1015.92
2023-02-19T11:16:53.827Z,1015.87
2023-02-19T11:17:53.886Z,1015.90
2023-02-19T11:18:55.944Z,1015.97
2023-02-19T11:19:54.028Z,1015.92
2023-02-19T11:20:53.770Z,1015.92
2023-02-19T11:21:54.161Z,1015.98
2023-02-19T11:22:53.944Z,1015.94
2023-02-19T11:23:53.666Z,1015.92
2023-02-19T11:24:57.324Z,1015.95
2023-02-19T11:25:53.667Z,1015.97
2023-02-19T11:26:53.640Z,1016.01
2023-02-19T11:27:53.675Z,1015.93
2023-02-19T11:28:53.606Z,1015.97
2023-02-19T11:29:53.619Z,1015.94
2023-02-19T11:30:53.599Z,1016.06
2023-02-19T11:31:54.622Z,1016.08
2023-02-19T11:32:53.649Z,1016.15
2023-02-19T11:33:53.583Z,1016.13
2023-02-19T11:34:54.300Z,1016.13
2023-02-19T11:35:54.502Z,1016.12
2023-02-19T11:36:53.549Z,1016.15
2023-02-19T11:37:53.598Z,1016.17
2023-02-19T11:38:53.520Z,1016.15
2023-02-19T11:39:53.473Z,1016.03
2023-02-19T11:40:53.537Z,1016.05
2023-02-19T11:41:53.446Z,1016.05
2023-02-19T11:42:53.550Z,1016.03
2023-02-19T11:43:53.472Z,1015.96
2023-02-19T11:44:53.495Z,1016.11
2023-02-19T11:45:53.435Z,1016.04
2023-02-19T11:46:53.428Z,1016.12
2023-02-19T11:47:53.553Z,1016.06
2023-02-19T11:48:53.433Z,1016.02
2023-02-19T11:49:53.349Z,1016.06
2023-02-19T11:50:53.604Z,1016.08
2023-02-19T11:51:53.352Z,1016.15
2023-02-19T11:52:53.319Z,1016.18
2023-02-19T11:53:53.315Z,1016.15
2023-02-19T11:54:54.784Z,1016.17
2023-02-19T11:55:53.315Z,1016.10
2023-02-19T11:56:53.279Z,1016.17
2023-02-19T11:57:53.305Z,1016.13
2023-02-19T11:58:53.340Z,1016.13
2023-02-19T11:59:53.217Z,1016.11
2023-02-19T12:00:53.422Z,1016.11
2023-02-19T12:01:53.299Z,1016.15
2023-02-19T12:02:53.198Z,1016.25
2023-02-19T12:03:53.282Z,1016.21
2023-02-19T12:04:53.220Z,1016.14